Time;durP1;ratioP1;P1;durP2;ratioP2;P2;SDS_P1;SDS_P2;PMS_P1;PMS_P2;Temp;Humidity;BMP_temperature;BMP_pressure;BME280_temperature;BME280_humidity;BME280_pressure;Samples;Min_cycle;Max_cycle;Signal;HPM_P1;HPM_P2
2023/07/26 00:01:06;;;;;;;11.70;6.40;;;;;;;25.00;100.00;98527.40;91114;1270;138391;-65
2023/07/26 00:03:08;;;;;;;13.00;6.40;;;;;;;25.00;99.97;98522.84;91221;1266;22237;-64
2023/07/26 00:05:10;;;;;;;7.40;5.90;;;;;;;24.98;99.97;98526.84;90971;1271;138216;-74
2023/07/26 00:07:12;;;;;;;7.10;6.00;;;;;;;24.95;99.60;98520.29;91236;1270;22321;-64
2023/07/26 00:09:13;;;;;;;10.50;5.90;;;;;;;24.96;98.28;98520.15;91132;1271;138924;-63
2023/07/26 00:11:15;;;;;;;10.00;6.20;;;;;;;24.94;97.95;98518.48;91238;1270;22333;-64
2023/07/26 00:13:17;;;;;;;6.50;5.90;;;;;;;24.93;97.41;98521.42;91142;1271;138198;-74
2023/07/26 00:15:19;;;;;;;8.70;6.10;;;;;;;24.92;97.19;98525.59;91296;1263;22108;-70
2023/07/26 00:17:20;;;;;;;10.50;7.00;;;;;;;24.91;96.89;98528.06;91129;1270;138817;-61
2023/07/26 00:19:23;;;;;;;11.40;6.80;;;;;;;24.91;96.60;98528.19;91262;1269;23052;-63
2023/07/26 00:21:25;;;;;;;12.10;6.70;;;;;;;24.91;95.97;98528.89;91138;1270;138207;-64
2023/07/26 00:23:26;;;;;;;11.10;6.70;;;;;;;24.92;95.75;98527.67;91252;1270;22440;-63
2023/07/26 00:25:28;;;;;;;12.80;10.20;;;;;;;24.90;95.03;98525.57;91067;1269;139753;-64
2023/07/26 00:27:30;;;;;;;10.50;6.80;;;;;;;24.88;94.85;98522.17;91170;1270;22314;-65
2023/07/26 00:29:32;;;;;;;11.40;9.20;;;;;;;24.86;94.51;98526.19;91159;1270;140444;-65
2023/07/26 00:31:34;;;;;;;10.70;6.60;;;;;;;24.82;93.07;98517.27;91258;1270;22233;-63
2023/07/26 00:33:36;;;;;;;8.70;7.10;;;;;;;24.79;91.05;98518.14;91113;1271;139139;-65
2023/07/26 00:35:40;;;;;;;12.70;7.00;;;;;;;24.80;89.97;98520.57;91284;1270;23217;-62
2023/07/26 00:37:42;;;;;;;15.80;7.30;;;;;;;24.79;89.14;98517.05;91123;1262;138970;-63
2023/07/26 00:39:43;;;;;;;10.50;9.50;;;;;;;24.79;88.34;98521.80;91263;1269;22285;-63
2023/07/26 00:41:45;;;;;;;8.40;5.50;;;;;;;24.77;86.43;98518.38;91154;1270;138625;-62
2023/07/26 00:43:47;;;;;;;7.00;6.40;;;;;;;24.73;85.60;98515.95;91281;1270;22184;-62
2023/07/26 00:45:49;;;;;;;8.50;6.60;;;;;;;24.79;85.06;98523.96;91101;1271;139207;-62
2023/07/26 00:47:53;;;;;;;7.60;6.30;;;;;;;24.78;84.54;98523.02;91214;1271;22174;-63
2023/07/26 00:49:55;;;;;;;9.20;5.30;;;;;;;24.73;83.79;98514.00;91104;1270;139049;-63
2023/07/26 00:51:56;;;;;;;8.70;4.90;;;;;;;24.70;82.41;98513.33;91095;1271;22192;-64
2023/07/26 00:53:58;;;;;;;7.10;5.10;;;;;;;24.75;80.76;98519.50;91117;1270;138032;-63
2023/07/26 00:56:00;;;;;;;7.20;5.60;;;;;;;24.76;79.77;98520.02;91153;1255;22172;-62
2023/07/26 00:58:02;;;;;;;8.90;5.00;;;;;;;24.74;79.70;98522.20;91298;1269;22322;-62
2023/07/26 01:00:06;;;;;;;5.80;4.20;;;;;;;24.72;78.93;98518.63;91134;1269;138733;-67
2023/07/26 01:02:08;;;;;;;7.30;4.30;;;;;;;24.69;78.23;98518.27;91284;1270;23146;-62
2023/07/26 01:04:10;;;;;;;6.10;4.10;;;;;;;24.65;77.54;98520.53;91195;1269;138780;-64
2023/07/26 01:06:22;;;;;;;6.00;4.00;;;;;;;24.64;77.76;98530.15;91314;1270;23082;-63
2023/07/26 01:08:34;;;;;;;7.30;4.60;;;;;;;24.61;77.27;98530.00;91175;1269;137341;-62
2023/07/26 01:10:45;;;;;;;10.50;4.40;;;;;;;24.56;76.95;98534.22;91301;1270;22450;-63
2023/07/26 01:12:54;;;;;;;7.50;4.50;;;;;;;24.51;77.15;98528.80;91183;1255;138357;-61
2023/07/26 01:15:06;;;;;;;6.80;4.20;;;;;;;24.48;77.35;98524.23;91309;1270;22217;-63
2023/07/26 01:17:10;;;;;;;5.40;3.80;;;;;;;24.45;77.21;98523.33;91203;1262;139644;-64
2023/07/26 01:19:12;;;;;;;5.10;3.60;;;;;;;24.41;76.99;98523.45;91235;1271;22195;-65
2023/07/26 01:21:13;;;;;;;6.90;3.50;;;;;;;24.36;77.10;98526.97;91163;1258;137076;-62
2023/07/26 01:23:15;;;;;;;5.50;3.70;;;;;;;24.32;77.23;98527.13;91291;1270;22226;-62
2023/07/26 01:25:17;;;;;;;6.40;4.50;;;;;;;24.31;77.25;98527.55;91105;1270;138714;-62
2023/07/26 01:27:18;;;;;;;8.90;3.50;;;;;;;24.29;77.33;98521.85;91188;1272;22206;-65
2023/07/26 01:29:20;;;;;;;8.10;4.40;;;;;;;24.26;77.38;98524.45;91165;1270;139576;-63
2023/07/26 01:31:24;;;;;;;6.10;4.60;;;;;;;24.24;77.52;98531.20;91221;1270;23410;-63
2023/07/26 01:33:28;;;;;;;3.50;2.80;;;;;;;24.23;77.61;98525.88;91170;1270;138075;-62
2023/07/26 01:35:31;;;;;;;6.50;4.30;;;;;;;24.22;77.33;98535.03;91280;1270;22925;-61
2023/07/26 01:37:32;;;;;;;8.80;3.90;;;;;;;24.21;77.53;98544.16;91198;1274;137342;-67
2023/07/26 01:39:34;;;;;;;9.60;3.20;;;;;;;24.18;77.80;98556.33;91254;1270;23223;-61
2023/07/26 01:41:38;;;;;;;6.10;3.90;;;;;;;24.14;78.03;98565.46;91141;1274;138425;-62
2023/07/26 01:43:40;;;;;;;5.50;3.10;;;;;;;24.08;78.30;98567.16;91183;1270;22360;-61
2023/07/26 01:45:41;;;;;;;5.50;2.90;;;;;;;24.03;78.70;98573.05;91170;1271;137739;-62
2023/07/26 01:47:43;;;;;;;6.90;2.70;;;;;;;23.98;78.79;98575.17;91308;1270;22530;-62
2023/07/26 01:49:45;;;;;;;3.80;2.90;;;;;;;23.94;78.96;98580.73;91181;1265;137305;-63
2023/07/26 01:51:47;;;;;;;9.80;3.30;;;;;;;23.89;79.23;98582.79;91233;1270;22411;-62
2023/07/26 01:53:49;;;;;;;7.90;3.20;;;;;;;23.87;79.22;98583.88;91185;1258;138004;-62
2023/07/26 01:55:50;;;;;;;5.10;3.00;;;;;;;23.86;79.20;98599.77;91243;1269;22419;-66
2023/07/26 01:57:52;;;;;;;7.70;3.00;;;;;;;23.86;79.48;98604.52;91117;1260;137982;-62
2023/07/26 01:59:54;;;;;;;4.80;2.20;;;;;;;23.86;79.51;98599.91;91276;1269;22327;-63
2023/07/26 02:01:56;;;;;;;5.20;2.50;;;;;;;23.83;79.61;98600.19;91102;1270;139753;-62
2023/07/26 02:03:58;;;;;;;5.30;2.90;;;;;;;23.80;79.80;98603.45;91258;1270;22324;-62
2023/07/26 02:06:00;;;;;;;3.80;2.60;;;;;;;23.74;79.91;98598.54;91119;1270;137435;-61
2023/07/26 02:08:03;;;;;;;7.00;3.50;;;;;;;23.70;79.92;98594.64;91110;1270;137562;-63
2023/07/26 02:10:05;;;;;;;6.50;2.90;;;;;;;23.66;80.09;98589.55;91195;1271;22355;-62
2023/07/26 02:12:06;;;;;;;3.70;2.70;;;;;;;23.62;80.23;98592.95;90997;1276;138605;-65
2023/07/26 02:14:08;;;;;;;4.10;2.50;;;;;;;23.60;80.47;98601.73;91304;1270;22413;-62
2023/07/26 02:16:10;;;;;;;3.50;2.70;;;;;;;23.59;80.68;98609.16;91234;1271;139404;-61
2023/07/26 02:18:12;;;;;;;5.20;2.60;;;;;;;23.58;80.81;98605.81;91290;1270;22132;-61
2023/07/26 02:20:13;;;;;;;3.70;2.50;;;;;;;23.57;80.91;98607.77;91186;1270;138633;-62
2023/07/26 02:22:16;;;;;;;4.80;3.70;;;;;;;23.54;81.05;98611.70;91292;1269;22393;-62
2023/07/26 02:24:17;;;;;;;5.60;2.40;;;;;;;23.51;81.21;98611.88;90985;1264;138121;-62
2023/07/26 02:26:20;;;;;;;6.60;2.80;;;;;;;23.50;81.36;98619.36;91291;1272;22220;-63
2023/07/26 02:28:21;;;;;;;5.30;2.30;;;;;;;23.49;81.64;98623.66;91140;1255;138207;-64
2023/07/26 02:30:23;;;;;;;6.20;2.90;;;;;;;23.46;81.86;98625.59;91252;1255;22628;-65
2023/07/26 02:32:27;;;;;;;4.10;3.30;;;;;;;23.44;81.95;98621.83;91104;1270;138232;-68
2023/07/26 02:34:28;;;;;;;7.10;3.10;;;;;;;23.41;81.97;98627.30;91302;1270;22316;-62
2023/07/26 02:36:30;;;;;;;3.60;2.70;;;;;;;23.40;82.07;98633.89;91140;1278;137290;-62
2023/07/26 02:38:32;;;;;;;6.60;2.30;;;;;;;23.39;82.09;98631.02;91324;1270;22426;-61
2023/07/26 02:40:35;;;;;;;6.50;3.40;;;;;;;23.41;81.96;98631.96;91155;1269;139794;-68
2023/07/26 02:42:37;;;;;;;3.70;2.40;;;;;;;23.44;81.97;98629.00;91238;1270;22377;-63
2023/07/26 02:44:40;;;;;;;5.50;2.60;;;;;;;23.46;81.96;98631.34;91163;1271;139278;-62
2023/07/26 02:46:41;;;;;;;9.60;2.60;;;;;;;23.48;81.79;98636.49;91289;1271;23017;-62
2023/07/26 02:48:43;;;;;;;4.10;1.90;;;;;;;23.51;81.69;98635.39;91175;1270;138911;-62
2023/07/26 02:50:45;;;;;;;4.00;1.90;;;;;;;23.54;81.59;98640.74;91211;1270;23230;-63
2023/07/26 02:52:46;;;;;;;7.50;2.60;;;;;;;23.57;81.38;98639.53;91021;1270;137639;-63
2023/07/26 02:54:48;;;;;;;4.70;2.70;;;;;;;23.56;81.35;98651.63;91293;1273;22205;-62
2023/07/26 02:56:50;;;;;;;2.80;2.00;;;;;;;23.58;81.56;98664.69;91180;1271;137370;-63
2023/07/26 02:58:52;;;;;;;4.40;2.70;;;;;;;23.57;81.64;98678.89;91275;1270;22385;-62
2023/07/26 03:00:54;;;;;;;4.60;2.10;;;;;;;23.56;81.74;98682.15;91115;1255;137000;-63
2023/07/26 03:02:55;;;;;;;7.00;2.60;;;;;;;23.57;81.82;98679.64;91282;1270;22364;-62
2023/07/26 03:04:57;;;;;;;7.00;2.80;;;;;;;23.65;81.71;98674.27;91193;1273;137473;-64
2023/07/26 03:06:59;;;;;;;3.60;2.70;;;;;;;23.79;81.15;98673.71;91203;1256;22322;-63
2023/07/26 03:09:01;;;;;;;4.20;2.00;;;;;;;23.97;80.52;98679.14;91177;1270;138440;-62
2023/07/26 03:11:02;;;;;;;6.40;3.00;;;;;;;24.18;79.66;98678.56;91237;1272;22918;-63
2023/07/26 03:13:04;;;;;;;5.30;2.90;;;;;;;24.45;78.74;98687.05;91106;1270;139160;-63
2023/07/26 03:15:07;;;;;;;5.90;2.10;;;;;;;24.79;77.38;98686.65;91274;1271;22321;-61
2023/07/26 03:17:09;;;;;;;7.20;2.30;;;;;;;25.20;75.52;98695.35;91188;1269;136979;-63
2023/07/26 03:19:22;;;;;;;5.90;2.30;;;;;;;25.52;73.47;98708.12;91298;1270;22460;-63
2023/07/26 03:21:24;;;;;;;3.50;2.50;;;;;;;25.68;72.06;98721.34;91212;1269;137040;-64
2023/07/26 03:23:26;;;;;;;3.20;2.10;;;;;;;25.77;71.02;98722.71;91299;1270;22293;-63
2023/07/26 03:25:28;;;;;;;5.80;2.70;;;;;;;25.81;70.69;98720.48;91153;1270;137172;-63
2023/07/26 03:27:29;;;;;;;6.00;2.60;;;;;;;25.88;70.39;98707.72;91257;1265;22392;-63
2023/07/26 03:29:31;;;;;;;7.40;3.20;;;;;;;26.07;69.87;98704.27;91198;1267;138015;-63
2023/07/26 03:31:33;;;;;;;7.40;3.10;;;;;;;26.41;69.12;98705.75;91293;1270;23200;-63
2023/07/26 03:33:35;;;;;;;8.60;2.50;;;;;;;26.83;66.85;98709.08;91159;1268;138057;-63
2023/07/26 03:35:37;;;;;;;3.70;2.10;;;;;;;27.20;64.78;98720.33;91266;1270;23020;-63
2023/07/26 03:37:38;;;;;;;4.80;2.50;;;;;;;27.50;63.66;98728.90;91186;1270;139226;-63
2023/07/26 03:39:40;;;;;;;3.10;1.90;;;;;;;27.80;62.57;98734.58;91298;1269;22334;-63
2023/07/26 03:41:42;;;;;;;3.60;2.30;;;;;;;28.09;61.35;98735.42;91092;1256;138535;-63
2023/07/26 03:43:43;;;;;;;4.50;2.10;;;;;;;28.35;59.65;98737.77;91279;1270;22208;-64
2023/07/26 03:45:45;;;;;;;9.50;2.70;;;;;;;28.48;58.92;98743.48;91163;1270;137114;-63
2023/07/26 03:47:47;;;;;;;2.70;1.70;;;;;;;28.63;58.52;98735.42;91283;1273;22387;-64
2023/07/26 03:49:49;;;;;;;5.80;3.00;;;;;;;28.91;57.30;98742.37;91218;1269;138369;-65
2023/07/26 03:51:50;;;;;;;4.70;2.40;;;;;;;29.25;56.35;98748.71;91217;1255;23103;-64
2023/07/26 03:53:52;;;;;;;3.70;2.30;;;;;;;29.51;55.13;98746.08;91134;1270;139339;-64
2023/07/26 03:56:44;;;;;;;6.20;2.50;;;;;;;29.70;54.22;98744.99;85386;1312;545444;-64
2023/07/26 03:58:46;;;;;;;6.10;1.70;;;;;;;29.79;53.26;98748.67;87144;1286;22569;-65
2023/07/26 04:00:48;;;;;;;3.70;2.20;;;;;;;29.83;53.04;98751.44;87026;1286;137006;-64
2023/07/26 04:02:49;;;;;;;5.60;2.60;;;;;;;29.81;52.92;98756.96;87157;1284;22549;-64
2023/07/26 04:04:52;;;;;;;5.00;1.80;;;;;;;29.75;52.76;98755.65;87132;1284;137271;-66
2023/07/26 04:06:53;;;;;;;5.30;2.20;;;;;;;29.70;52.79;98760.30;87260;1284;22661;-64
2023/07/26 04:08:55;;;;;;;4.10;2.00;;;;;;;29.74;53.24;98760.16;87220;1284;137080;-66
2023/07/26 04:11:02;;;;;;;5.10;2.30;;;;;;;29.89;52.81;98764.93;87218;1286;363459;-63
2023/07/26 04:13:04;;;;;;;3.10;2.00;;;;;;;30.01;52.13;98762.92;87537;1270;137332;-65
2023/07/26 04:15:07;;;;;;;2.90;1.70;;;;;;;30.06;51.92;98766.43;87578;1283;22587;-66
2023/07/26 04:17:09;;;;;;;7.30;2.00;;;;;;;30.08;51.76;98769.23;90559;1282;136703;-65
2023/07/26 04:19:11;;;;;;;6.70;2.00;;;;;;;30.04;51.74;98765.45;90667;1284;23244;-64
2023/07/26 04:21:15;;;;;;;2.80;1.70;;;;;;;30.00;51.85;98759.62;90536;1286;138071;-64
2023/07/26 04:23:16;;;;;;;6.10;1.80;;;;;;;30.04;51.63;98758.05;90664;1283;22377;-64
2023/07/26 04:25:18;;;;;;;5.40;1.70;;;;;;;30.10;51.57;98752.63;90564;1282;138440;-65
2023/07/26 04:27:20;;;;;;;4.10;2.20;;;;;;;30.21;51.33;98748.06;90585;1283;23090;-65
2023/07/26 04:29:21;;;;;;;4.40;1.90;;;;;;;30.29;50.67;98734.75;90473;1283;136775;-64
2023/07/26 04:31:23;;;;;;;4.00;1.90;;;;;;;30.47;50.82;98737.27;90545;1282;22461;-64
2023/07/26 04:33:25;;;;;;;4.30;1.80;;;;;;;30.64;50.01;98741.63;90546;1283;140455;-63
2023/07/26 04:35:26;;;;;;;4.70;1.80;;;;;;;30.75;49.55;98751.53;90678;1283;23036;-65
2023/07/26 04:37:28;;;;;;;5.90;1.90;;;;;;;30.85;49.62;98759.98;90565;1282;137631;-64
2023/07/26 04:39:30;;;;;;;4.80;1.90;;;;;;;30.91;49.06;98756.20;90631;1282;23122;-63
2023/07/26 04:41:31;;;;;;;7.20;1.80;;;;;;;30.75;49.49;98751.37;90562;1285;138132;-63
2023/07/26 04:43:33;;;;;;;5.30;2.00;;;;;;;30.55;49.93;98747.27;90650;1284;22324;-64
2023/07/26 04:45:35;;;;;;;6.20;2.20;;;;;;;30.42;50.34;98746.52;90576;1277;137314;-64
2023/07/26 04:47:36;;;;;;;3.90;1.20;;;;;;;30.26;50.80;98745.45;90644;1283;23017;-65
2023/07/26 04:49:38;;;;;;;6.20;1.70;;;;;;;30.08;51.09;98744.64;90541;1283;138225;-64
2023/07/26 04:51:40;;;;;;;3.40;1.90;;;;;;;29.93;51.71;98745.31;90683;1283;22235;-64
2023/07/26 04:53:42;;;;;;;6.50;1.90;;;;;;;29.82;51.91;98749.15;90521;1284;136695;-64
2023/07/26 04:55:50;;;;;;;4.00;1.50;;;;;;;29.71;52.34;98754.45;90641;1281;22333;-63
2023/07/26 04:57:52;;;;;;;5.20;1.90;;;;;;;29.64;52.92;98744.28;90549;1283;138503;-65
2023/07/26 04:59:54;;;;;;;4.60;1.90;;;;;;;29.62;53.15;98740.47;90646;1283;22204;-63
2023/07/26 05:01:55;;;;;;;3.60;2.10;;;;;;;29.60;52.90;98745.21;90535;1270;136739;-65
2023/07/26 05:03:57;;;;;;;3.70;2.10;;;;;;;29.56;53.04;98752.09;90616;1282;22371;-63
2023/07/26 05:05:59;;;;;;;4.00;2.20;;;;;;;29.49;53.45;98758.66;90529;1282;136417;-64
2023/07/26 05:08:02;;;;;;;5.70;2.10;;;;;;;29.42;53.65;98763.89;90606;1284;22191;-65
2023/07/26 05:10:05;;;;;;;4.90;2.30;;;;;;;29.36;53.87;98770.64;90680;1282;22118;-65
2023/07/26 05:12:07;;;;;;;6.40;2.10;;;;;;;29.28;54.63;98767.55;90564;1282;137952;-65
2023/07/26 05:14:09;;;;;;;2.60;2.00;;;;;;;29.32;55.17;98764.80;90635;1283;22238;-65
2023/07/26 05:16:10;;;;;;;4.80;2.20;;;;;;;29.48;54.61;98769.52;90508;1284;136912;-65
2023/07/26 05:18:14;;;;;;;4.20;2.30;;;;;;;29.71;54.02;98774.73;90615;1282;22234;-64
2023/07/26 05:20:16;;;;;;;4.50;2.00;;;;;;;29.74;53.22;98780.39;90546;1284;138150;-64
2023/07/26 05:22:18;;;;;;;4.70;3.00;;;;;;;29.42;53.66;98788.27;90621;1287;22298;-64
2023/07/26 05:24:19;;;;;;;4.80;1.90;;;;;;;28.94;55.22;98793.61;90489;1283;139625;-65
2023/07/26 05:26:21;;;;;;;3.10;2.10;;;;;;;28.47;57.02;98801.17;90637;1284;22300;-65
2023/07/26 05:28:22;;;;;;;4.60;2.50;;;;;;;28.09;58.53;98801.64;90544;1282;137233;-66
2023/07/26 05:30:24;;;;;;;4.40;3.70;;;;;;;27.85;60.18;98800.38;90658;1282;22293;-64
2023/07/26 05:32:27;;;;;;;5.30;2.70;;;;;;;27.77;61.06;98805.58;90548;1283;136613;-64
2023/07/26 05:34:29;;;;;;;9.80;4.10;;;;;;;27.84;61.43;98806.57;90585;1281;23182;-63
2023/07/26 05:36:31;;;;;;;5.20;2.40;;;;;;;28.10;60.64;98811.51;90523;1283;136938;-63
2023/07/26 05:38:33;;;;;;;4.90;3.70;;;;;;;28.37;59.38;98800.92;90663;1282;22941;-66
2023/07/26 05:40:34;;;;;;;8.10;2.30;;;;;;;28.71;58.36;98809.19;90504;1283;137577;-64
2023/07/26 05:42:37;;;;;;;3.90;3.50;;;;;;;28.93;57.87;98806.92;90730;1277;23171;-64
2023/07/26 05:44:40;;;;;;;2.80;2.00;;;;;;;29.20;57.15;98809.96;90626;1277;138345;-66
2023/07/26 05:46:41;;;;;;;5.90;2.80;;;;;;;29.55;55.39;98806.48;90727;1277;22413;-64
2023/07/26 05:48:43;;;;;;;3.80;1.60;;;;;;;29.76;53.96;98808.40;90622;1274;137294;-65
2023/07/26 05:50:47;;;;;;;6.40;2.80;;;;;;;29.84;53.32;98806.63;90691;1278;22397;-65
2023/07/26 05:52:49;;;;;;;4.80;1.80;;;;;;;29.81;53.69;98805.94;90632;1282;137092;-65
2023/07/26 05:54:51;;;;;;;4.60;2.10;;;;;;;29.80;53.69;98799.86;90744;1278;22397;-64
2023/07/26 05:56:52;;;;;;;4.80;2.80;;;;;;;30.01;53.43;98805.85;90636;1277;136695;-68
2023/07/26 05:58:54;;;;;;;3.70;2.00;;;;;;;30.12;52.86;98797.01;90664;1279;22495;-64
2023/07/26 06:00:56;;;;;;;5.00;2.50;;;;;;;30.18;52.45;98801.63;90624;1278;136908;-66
2023/07/26 06:02:58;;;;;;;3.90;1.70;;;;;;;30.18;52.22;98809.09;90727;1280;22316;-65
2023/07/26 06:04:59;;;;;;;6.00;2.40;;;;;;;30.14;52.38;98805.70;90601;1278;136936;-66
2023/07/26 06:07:02;;;;;;;2.70;2.30;;;;;;;30.04;52.60;98804.69;90723;1277;23338;-65
2023/07/26 06:09:07;;;;;;;4.00;2.30;;;;;;;29.99;52.83;98801.83;90555;1272;138277;-65
2023/07/26 06:11:08;;;;;;;3.40;1.50;;;;;;;29.96;53.11;98800.48;90702;1277;22376;-65
2023/07/26 06:13:12;;;;;;;6.70;2.00;;;;;;;29.89;52.79;98790.73;90612;1282;136918;-65
2023/07/26 06:15:14;;;;;;;5.70;2.10;;;;;;;29.83;52.29;98794.52;90670;1280;22509;-65
2023/07/26 06:17:16;;;;;;;7.40;2.00;;;;;;;29.66;53.17;98786.06;90604;1278;136688;-67
2023/07/26 06:19:17;;;;;;;3.60;2.10;;;;;;;29.62;53.37;98780.79;90689;1278;22444;-64
2023/07/26 06:21:19;;;;;;;6.10;2.60;;;;;;;29.62;53.01;98792.15;90614;1277;136901;-66
2023/07/26 06:23:21;;;;;;;7.80;2.20;;;;;;;29.62;53.18;98804.09;90721;1277;23056;-65
2023/07/26 06:25:23;;;;;;;2.60;2.20;;;;;;;29.65;53.58;98810.52;90626;1277;138232;-65
2023/07/26 06:27:28;;;;;;;2.90;1.80;;;;;;;29.71;53.10;98810.20;90660;1280;22903;-66
2023/07/26 06:29:29;;;;;;;3.10;1.50;;;;;;;29.50;52.57;98806.91;90635;1278;137025;-65
2023/07/26 06:31:31;;;;;;;4.70;2.10;;;;;;;29.34;53.34;98813.55;90683;1280;23137;-65
2023/07/26 06:33:33;;;;;;;3.50;1.80;;;;;;;29.13;54.31;98807.48;90557;1280;138291;-65
2023/07/26 06:35:35;;;;;;;5.90;1.80;;;;;;;28.90;54.73;98812.85;90712;1278;22337;-66
2023/07/26 06:37:37;;;;;;;1.40;1.30;;;;;;;28.69;55.41;98815.44;90649;1265;138098;-66
2023/07/26 06:39:39;;;;;;;5.30;2.30;;;;;;;28.50;56.19;98822.63;91137;1270;22484;-66
2023/07/26 06:41:40;;;;;;;3.10;2.20;;;;;;;28.29;56.62;98829.11;90895;1272;138215;-66
2023/07/26 06:43:42;;;;;;;3.40;2.30;;;;;;;28.12;57.18;98831.15;91122;1271;22399;-67
2023/07/26 06:45:46;;;;;;;3.30;2.10;;;;;;;27.92;57.87;98834.35;91030;1271;137532;-65
2023/07/26 06:47:47;;;;;;;3.60;1.80;;;;;;;27.72;58.83;98832.57;91109;1271;22347;-64
2023/07/26 06:49:49;;;;;;;2.20;1.50;;;;;;;27.57;59.33;98835.26;90981;1270;138555;-65
2023/07/26 06:51:52;;;;;;;4.00;2.00;;;;;;;27.51;60.16;98836.50;91019;1271;24027;-65
2023/07/26 06:53:53;;;;;;;2.90;2.50;;;;;;;27.53;60.17;98846.96;91042;1254;138116;-66
2023/07/26 06:55:58;;;;;;;3.10;2.30;;;;;;;27.70;59.67;98856.55;91138;1270;22413;-66
2023/07/26 06:58:00;;;;;;;2.10;1.90;;;;;;;27.87;59.30;98856.92;90894;1264;138072;-66
2023/07/26 07:00:06;;;;;;;3.70;2.90;;;;;;;27.98;59.07;98854.65;91107;1271;23004;-65
2023/07/26 07:02:08;;;;;;;5.80;2.60;;;;;;;28.05;58.16;98852.43;91162;1277;22341;-66
2023/07/26 07:04:10;;;;;;;4.00;2.30;;;;;;;28.04;57.94;98851.63;90891;1272;137429;-65
2023/07/26 07:06:15;;;;;;;8.30;2.40;;;;;;;28.01;58.57;98852.86;91105;1271;22423;-66
2023/07/26 07:08:17;;;;;;;3.60;2.10;;;;;;;28.11;58.47;98855.62;91019;1270;137001;-65
2023/07/26 07:10:19;;;;;;;2.90;2.70;;;;;;;28.22;58.09;98853.84;91045;1257;22394;-64
2023/07/26 07:12:21;;;;;;;3.10;2.50;;;;;;;28.32;58.41;98860.90;91036;1270;137304;-65
2023/07/26 07:14:23;;;;;;;3.00;1.90;;;;;;;28.47;56.88;98865.45;91114;1271;22423;-65
2023/07/26 07:16:24;;;;;;;2.30;2.00;;;;;;;28.62;56.61;98864.37;91033;1270;139573;-66
2023/07/26 07:18:26;;;;;;;2.30;2.10;;;;;;;28.76;55.92;98869.89;91126;1272;22461;-66
2023/07/26 07:20:28;;;;;;;7.20;2.20;;;;;;;28.82;55.26;98876.63;90959;1271;137512;-67
2023/07/26 07:22:30;;;;;;;3.40;2.00;;;;;;;28.82;54.77;98879.84;91111;1271;22357;-64
2023/07/26 07:24:34;;;;;;;2.40;1.90;;;;;;;28.80;55.33;98878.92;90994;1270;137128;-67
2023/07/26 07:26:35;;;;;;;2.70;2.40;;;;;;;28.79;55.22;98876.39;91080;1270;22375;-66
2023/07/26 07:28:37;;;;;;;1.70;1.50;;;;;;;28.76;55.01;98865.95;91015;1270;137713;-67
2023/07/26 07:30:38;;;;;;;2.00;1.80;;;;;;;28.72;54.88;98861.39;91110;1270;22618;-65
2023/07/26 07:32:40;;;;;;;2.50;2.20;;;;;;;28.65;54.89;98865.01;91013;1271;136947;-66
2023/07/26 07:34:42;;;;;;;1.80;1.70;;;;;;;28.50;55.40;98874.55;91092;1270;22357;-65
2023/07/26 07:36:44;;;;;;;3.20;2.30;;;;;;;28.33;56.00;98878.45;91029;1271;137987;-64
2023/07/26 07:38:46;;;;;;;5.90;2.40;;;;;;;28.18;56.59;98875.48;91129;1270;22367;-66
2023/07/26 07:40:48;;;;;;;3.80;2.00;;;;;;;28.06;56.99;98876.56;91012;1274;137003;-66
2023/07/26 07:42:50;;;;;;;5.20;2.40;;;;;;;27.97;57.78;98884.17;90997;1271;23282;-67
2023/07/26 07:44:52;;;;;;;2.00;1.50;;;;;;;27.91;58.13;98894.15;91018;1266;138361;-65
2023/07/26 07:46:54;;;;;;;2.70;1.90;;;;;;;27.84;58.58;98893.23;91107;1273;22389;-65
2023/07/26 07:49:05;;;;;;;3.20;1.40;;;;;;;27.82;59.36;98892.79;91031;1260;137268;-68
2023/07/26 07:51:06;;;;;;;4.50;2.00;;;;;;;27.81;59.48;98889.63;91065;1271;22381;-67
2023/07/26 07:53:09;;;;;;;2.90;1.90;;;;;;;27.81;59.69;98887.98;91016;1271;139106;-66
2023/07/26 07:55:11;;;;;;;4.90;2.00;;;;;;;27.80;59.64;98890.05;91093;1271;23508;-63
2023/07/26 07:57:13;;;;;;;5.00;2.50;;;;;;;27.77;59.90;98888.27;90991;1272;137635;-66
2023/07/26 07:59:15;;;;;;;2.50;2.30;;;;;;;27.77;61.10;98886.61;91014;1271;22355;-68
2023/07/26 08:01:16;;;;;;;2.30;1.80;;;;;;;27.77;60.54;98889.19;90996;1264;138478;-66
2023/07/26 08:03:18;;;;;;;2.00;1.80;;;;;;;27.73;60.22;98894.67;91101;1270;23222;-65
2023/07/26 08:05:20;;;;;;;3.20;2.10;;;;;;;27.68;60.29;98891.29;90986;1270;137180;-65
2023/07/26 08:07:21;;;;;;;3.30;1.70;;;;;;;27.63;60.01;98904.17;91024;1271;23271;-66
2023/07/26 08:09:23;;;;;;;5.60;2.00;;;;;;;27.58;59.99;98904.02;90982;1270;137739;-64
2023/07/26 08:11:25;;;;;;;2.10;1.60;;;;;;;27.53;59.94;98904.39;90998;1271;22438;-66
2023/07/26 08:13:27;;;;;;;2.40;2.20;;;;;;;27.46;60.38;98908.49;91021;1270;138098;-64
2023/07/26 08:15:32;;;;;;;5.40;2.10;;;;;;;27.36;60.47;98909.56;91085;1270;22461;-66
2023/07/26 08:17:34;;;;;;;3.00;2.10;;;;;;;27.32;60.78;98909.97;91053;1270;137277;-63
2023/07/26 08:19:36;;;;;;;4.00;2.80;;;;;;;27.30;62.08;98903.16;91002;1272;22485;-65
2023/07/26 08:21:38;;;;;;;1.90;1.50;;;;;;;27.37;61.92;98904.35;90984;1270;138949;-65
2023/07/26 08:23:39;;;;;;;2.50;2.30;;;;;;;27.45;61.82;98897.30;91132;1271;22352;-66
2023/07/26 08:25:42;;;;;;;1.90;1.50;;;;;;;27.43;61.17;98881.74;90953;1260;137800;-66
2023/07/26 08:27:43;;;;;;;2.20;1.40;;;;;;;27.42;61.56;98883.56;91143;1267;22377;-65
2023/07/26 08:29:45;;;;;;;1.60;1.50;;;;;;;27.37;61.53;98881.77;90985;1271;137387;-63
2023/07/26 08:31:47;;;;;;;2.60;1.50;;;;;;;27.34;61.41;98892.15;91097;1270;23150;-67
2023/07/26 08:33:49;;;;;;;1.70;1.60;;;;;;;27.30;61.48;98901.67;91022;1270;137622;-66
2023/07/26 08:35:50;;;;;;;1.60;1.10;;;;;;;27.24;62.25;98913.63;91106;1270;22324;-66
2023/07/26 08:37:52;;;;;;;2.10;1.40;;;;;;;27.15;62.96;98926.16;91000;1270;138148;-67
2023/07/26 08:39:54;;;;;;;2.60;1.50;;;;;;;27.09;63.16;98928.84;91124;1271;22357;-66
2023/07/26 08:41:56;;;;;;;7.00;1.90;;;;;;;27.12;63.36;98927.86;90986;1271;137961;-65
2023/07/26 08:44:01;;;;;;;2.50;1.70;;;;;;;27.17;62.72;98923.00;91116;1271;22442;-66
2023/07/26 08:46:05;;;;;;;1.80;1.70;;;;;;;27.18;62.41;98928.00;91112;1270;22310;-67
2023/07/26 08:48:07;;;;;;;;;;;;;;;27.18;62.57;98935.83;91022;1272;137324;-65
2023/07/26 08:50:10;;;;;;;4.50;1.30;;;;;;;27.19;62.53;98940.55;91060;1271;23341;-66
2023/07/26 08:52:11;;;;;;;4.00;2.00;;;;;;;27.19;62.09;98954.23;90934;1254;138454;-66
2023/07/26 08:54:14;;;;;;;4.40;2.10;;;;;;;27.15;62.08;98967.89;90959;1271;22340;-65
2023/07/26 08:56:17;;;;;;;2.90;1.40;;;;;;;27.07;62.90;98954.63;90862;1271;138287;-65
2023/07/26 08:58:19;;;;;;;2.00;1.70;;;;;;;26.99;63.80;98940.75;91023;1270;22410;-65
2023/07/26 09:00:21;;;;;;;3.50;1.40;;;;;;;26.90;64.91;98953.61;90994;1271;137896;-67
2023/07/26 09:02:23;;;;;;;2.30;2.00;;;;;;;26.82;64.83;98971.45;91085;1270;22882;-66
2023/07/26 09:04:25;;;;;;;4.20;2.60;;;;;;;26.72;65.06;98988.14;90998;1271;137029;-67
2023/07/26 09:06:28;;;;;;;4.30;1.90;;;;;;;26.58;65.58;98995.09;91092;1271;22424;-66
2023/07/26 09:08:29;;;;;;;5.80;1.40;;;;;;;26.32;66.67;98999.61;90999;1271;137079;-66
2023/07/26 09:10:31;;;;;;;2.40;2.20;;;;;;;26.16;67.51;99041.48;91072;1270;22433;-66
2023/07/26 09:12:33;;;;;;;3.20;2.00;;;;;;;25.95;68.47;99067.13;90979;1270;138561;-66
2023/07/26 09:14:35;;;;;;;2.90;2.40;;;;;;;25.77;69.41;99079.88;91021;1271;22365;-66
2023/07/26 09:16:37;;;;;;;6.10;2.20;;;;;;;25.62;70.12;99090.76;90913;1271;137238;-66
2023/07/26 09:18:55;;;;;;;3.10;1.90;;;;;;;25.52;70.52;99102.41;90969;1272;22382;-66
2023/07/26 09:21:01;;;;;;;6.60;2.30;;;;;;;25.43;71.39;99099.86;90848;1271;137102;-66
2023/07/26 09:23:10;;;;;;;3.70;1.90;;;;;;;25.38;75.95;99104.73;91109;1271;23217;-67
2023/07/26 09:25:12;;;;;;;1.30;1.10;;;;;;;25.23;80.97;99097.67;90997;1271;138669;-65
2023/07/26 09:27:14;;;;;;;3.40;1.70;;;;;;;25.00;82.60;99090.39;91110;1271;22310;-67
2023/07/26 09:29:16;;;;;;;2.20;1.80;;;;;;;24.75;84.22;99107.71;90991;1272;139240;-66
2023/07/26 09:31:30;;;;;;;1.80;1.70;;;;;;;24.51;87.14;99123.45;90995;1271;22449;-66
2023/07/26 09:33:33;;;;;;;2.90;1.80;;;;;;;24.20;89.98;99118.14;90983;1271;138324;-65